Airfield :







YOU CAN JOIN US ON...

 
LOGIN :

Register | Disclaimer

   EN    FR    IT 

 









Legend :    VFR   Marginal VFR   IFR   Intensive IFR   Very Intensive IFR
Visi :
Ceiling :
>= 8 km
>= 3000ft
5 to 8 km
1000 to 3000 ft
1500m to 5 km
500 to 1000 ft
800 to 1500m
200 to 500 ft
< 800m
< 200 ft
Symbols :   Thunderstorms  Fog  Heavy snow  Heavy precipitations  Wind > 20 kt






- Airport Elevation : 6 ft
- IATA code : AEY


BIAR - Akureyri

CURRENT METAR :
  • 262100Z 20004KT 170V280 CAVOK M05/M06 Q0968 R01/490195 RMK WIND VADLAHEIDI 19820KT

EXPIRED METARs :
  • 262000Z 19007KT CAVOK M03/M04 Q0967 R01/490195 RMK WIND VADLAHEIDI 17513KT
  • 261900Z 14006KT CAVOK M04/M05 Q0967 R01/490195 RMK WIND VADLAHEIDI 18718KT

TAF TAF BIAR
Valid from the 26 at 21:00 until the 27 at 21:00 UTC


261929Z 2621/2721 21015G25KT CAVOK TXM03/2621Z TNM07/2709Z
BECMG 2700/2702 16012KT 9999 SCT040
PROB40
TEMPO 2709/2713 5000 -SHSN BKN015



MET'MAP, your aeronautical weather chart ! - Copyright ORBIFLY December 2007 - Disclaimer

ORBIFLY MET'MAP TEAM :

Programming & Development : Alexandra Zaïnal
Concept & original design : Baudouin d'Aumeries
Assistance for programming : Marc-Olivier Méhu
Technical & hardware support : Manuel Goepfert

Contact : metmap@orbifly.com




SOURCES & CREDITS :

   NOAA